Time;durP1;ratioP1;P1;durP2;ratioP2;P2;SDS_P1;SDS_P2;PMS_P1;PMS_P2;Temp;Humidity;BMP_temperature;BMP_pressure;BME280_temperature;BME280_humidity;BME280_pressure;Samples;Min_cycle;Max_cycle;Signal;HPM_P1;HPM_P2
2023/10/27 00:01:41;;;;;;;;;;;;;;;;;;5051168;28;19948;-66
2023/10/27 00:04:07;;;;;;;;;;;;;;;;;;5051264;28;19960;-65
2023/10/27 00:06:33;;;;;;;;;;;;;;;;;;5052395;28;19908;-65
2023/10/27 00:08:59;;;;;;;;;;;;;;;;;;5051669;28;20357;-66
2023/10/27 00:11:25;;;;;;;;;;;;;;;;;;5044684;28;19916;-66
2023/10/27 00:13:51;;;;;;;;;;;;;;;;;;5039347;28;19921;-65
2023/10/27 00:16:17;;;;;;;;;;;;;;;;;;5034494;28;19936;-65
2023/10/27 00:18:43;;;;;;;;;;;;;;;;;;5052168;28;20408;-65
2023/10/27 00:21:09;;;;;;;;;;;;;;;;;;5050797;28;19912;-66
2023/10/27 00:23:35;;;;;;;;;;;;;;;;;;5052258;28;19917;-67
2023/10/27 00:26:01;;;;;;;;;;;;;;;;;;5052018;28;19948;-66
2023/10/27 00:28:27;;;;;;;;;;;;;;;;;;5050190;28;19994;-68
2023/10/27 00:30:53;;;;;;;;;;;;;;;;;;5051588;28;19948;-67
2023/10/27 00:33:19;;;;;;;;;;;;;;;;;;5050339;28;19943;-68
2023/10/27 00:35:45;;;;;;;;;;;;;;;;;;5039636;28;19909;-68
2023/10/27 00:38:10;;;;;;;;;;;;;;;;;;5042210;28;19923;-69
2023/10/27 00:40:36;;;;;;;;;;;;;;;;;;5044915;28;20327;-67
2023/10/27 00:43:03;;;;;;;;;;;;;;;;;;5035499;28;19913;-67
2023/10/27 00:45:29;;;;;;;;;;;;;;;;;;5056045;28;19908;-66
2023/10/27 00:47:55;;;;;;;;;;;;;;;;;;5055722;28;19912;-69
2023/10/27 00:50:21;;;;;;;;;;;;;;;;;;5055523;28;20051;-69
2023/10/27 00:52:47;;;;;;;;;;;;;;;;;;5055789;28;20011;-69
2023/10/27 00:55:13;;;;;;;;;;;;;;;;;;5047762;28;20063;-69
2023/10/27 00:57:39;;;;;;;;;;;;;;;;;;5052071;28;19913;-69
2023/10/27 01:00:05;;;;;;;;;;;;;;;;;;5054920;28;19955;-68
2023/10/27 01:02:31;;;;;;;;;;;;;;;;;;5055840;28;19917;-69
2023/10/27 01:04:57;;;;;;;;;;;;;;;;;;5054076;28;20012;-69
2023/10/27 01:07:23;;;;;;;;;;;;;;;;;;5055561;28;19944;-69
2023/10/27 01:09:49;;;;;;;;;;;;;;;;;;5054314;28;20399;-69
2023/10/27 01:12:15;;;;;;;;;;;;;;;;;;5052386;28;19960;-68
2023/10/27 01:14:41;;;;;;;;;;;;;;;;;;5046793;28;19924;-68
2023/10/27 01:17:07;;;;;;;;;;;;;;;;;;5035355;28;20056;-68
2023/10/27 01:19:35;;;;;;;;;;;;;;;;;;5035118;28;19913;-69
2023/10/27 01:22:01;;;;;;;;;;;;;;;;;;5039525;28;19939;-69
2023/10/27 01:24:27;;;;;;;;;;;;;;;;;;5054783;28;19917;-69
2023/10/27 01:26:53;;;;;;;;;;;;;;;;;;5053764;28;20475;-69
2023/10/27 01:29:20;;;;;;;;;;;;;;;;;;5053290;28;19913;-68
2023/10/27 01:31:46;;;;;;;;;;;;;;;;;;5054357;28;19921;-68
2023/10/27 01:34:12;;;;;;;;;;;;;;;;;;5054994;28;19953;-69
2023/10/27 01:36:38;;;;;;;;;;;;;;;;;;5054799;28;20411;-69
2023/10/27 01:39:04;;;;;;;;;;;;;;;;;;5054339;28;20007;-67
2023/10/27 01:41:30;;;;;;;;;;;;;;;;;;5053214;28;19912;-68
2023/10/27 01:43:55;;;;;;;;;;;;;;;;;;5052083;28;19917;-68
2023/10/27 01:46:21;;;;;;;;;;;;;;;;;;5053750;28;19913;-69
2023/10/27 01:48:47;;;;;;;;;;;;;;;;;;5041084;28;19916;-68
2023/10/27 01:51:13;;;;;;;;;;;;;;;;;;5034387;28;19948;-69
2023/10/27 01:53:39;;;;;;;;;;;;;;;;;;5034826;28;19909;-68
2023/10/27 01:56:05;;;;;;;;;;;;;;;;;;5044470;28;20288;-68
2023/10/27 01:58:31;;;;;;;;;;;;;;;;;;5053218;28;19920;-68
2023/10/27 02:00:57;;;;;;;;;;;;;;;;;;5054056;28;19956;-69
2023/10/27 02:03:23;;;;;;;;;;;;;;;;;;5054033;28;19913;-66
2023/10/27 02:05:49;;;;;;;;;;;;;;;;;;5036568;28;19913;-66
2023/10/27 02:08:16;;;;;;;;;;;;;;;;;;5054132;28;19986;-66
2023/10/27 02:10:42;;;;;;;;;;;;;;;;;;5053171;28;20468;-66
2023/10/27 02:13:08;;;;;;;;;;;;;;;;;;5052932;28;19960;-66
2023/10/27 02:15:34;;;;;;;;;;;;;;;;;;5053108;28;19913;-66
2023/10/27 02:18:00;;;;;;;;;;;;;;;;;;5054408;28;19931;-66
2023/10/27 02:20:29;;;;;;;;;;;;;;;;;;5049915;28;19920;-66
2023/10/27 02:22:55;;;;;;;;;;;;;;;;;;5034115;28;19913;-66
2023/10/27 02:25:21;;;;;;;;;;;;;;;;;;5033910;28;19993;-66
2023/10/27 02:27:47;;;;;;;;;;;;;;;;;;5034104;28;19947;-66
2023/10/27 02:30:13;;;;;;;;;;;;;;;;;;5042322;28;19925;-66
2023/10/27 02:32:39;;;;;;;;;;;;;;;;;;5053845;28;19971;-65
2023/10/27 02:35:05;;;;;;;;;;;;;;;;;;5053672;28;19936;-66
2023/10/27 02:37:31;;;;;;;;;;;;;;;;;;5053093;28;20004;-66
2023/10/27 02:39:57;;;;;;;;;;;;;;;;;;5037838;28;19998;-66
2023/10/27 02:42:22;;;;;;;;;;;;;;;;;;5051559;28;19915;-65
2023/10/27 02:44:48;;;;;;;;;;;;;;;;;;5052390;28;19959;-65
2023/10/27 02:47:14;;;;;;;;;;;;;;;;;;5052490;28;19979;-65
2023/10/27 02:49:40;;;;;;;;;;;;;;;;;;5053062;28;19919;-65
2023/10/27 02:52:06;;;;;;;;;;;;;;;;;;5053391;28;19952;-66
2023/10/27 02:54:32;;;;;;;;;;;;;;;;;;5038760;28;20407;-66
2023/10/27 02:56:58;;;;;;;;;;;;;;;;;;5042071;28;19913;-65
2023/10/27 02:59:24;;;;;;;;;;;;;;;;;;5053030;28;20285;-66
2023/10/27 03:01:51;;;;;;;;;;;;;;;;;;5053418;28;19952;-66
2023/10/27 03:04:17;;;;;;;;;;;;;;;;;;5051794;28;19917;-66
2023/10/27 03:06:44;;;;;;;;;;;;;;;;;;5053318;28;20400;-65
2023/10/27 03:09:10;;;;;;;;;;;;;;;;;;5052104;28;20371;-66
2023/10/27 03:11:36;;;;;;;;;;;;;;;;;;5044751;28;19956;-66
2023/10/27 03:14:01;;;;;;;;;;;;;;;;;;5051505;28;20284;-62
2023/10/27 03:16:27;;;;;;;;;;;;;;;;;;5053114;28;19912;-62
2023/10/27 03:18:55;;;;;;;;;;;;;;;;;;5051508;28;20086;-63
2023/10/27 03:21:21;;;;;;;;;;;;;;;;;;5051839;28;19952;-62
2023/10/27 03:23:47;;;;;;;;;;;;;;;;;;5050545;28;19998;-62
2023/10/27 03:26:13;;;;;;;;;;;;;;;;;;5052270;28;19912;-62
2023/10/27 03:28:41;;;;;;;;;;;;;;;;;;5052940;28;19909;-62
2023/10/27 03:31:08;;;;;;;;;;;;;;;;;;5050981;28;19935;-63
2023/10/27 03:33:34;;;;;;;;;;;;;;;;;;5034733;28;19919;-62
2023/10/27 03:36:00;;;;;;;;;;;;;;;;;;5050500;28;19957;-62
2023/10/27 03:38:26;;;;;;;;;;;;;;;;;;5052792;28;20245;-62
2023/10/27 03:40:53;;;;;;;;;;;;;;;;;;5051618;28;19917;-63
2023/10/27 03:43:19;;;;;;;;;;;;;;;;;;5051346;28;19912;-62
2023/10/27 03:45:45;;;;;;;;;;;;;;;;;;5048874;28;19982;-62
2023/10/27 03:48:11;;;;;;;;;;;;;;;;;;5052413;28;19913;-62
2023/10/27 03:50:37;;;;;;;;;;;;;;;;;;5051104;28;20017;-62
2023/10/27 03:53:03;;;;;;;;;;;;;;;;;;5072600;28;19963;-62
2023/10/27 03:55:29;;;;;;;;;;;;;;;;;;5064414;28;19951;-62
2023/10/27 03:57:55;;;;;;;;;;;;;;;;;;5050260;28;20268;-62
2023/10/27 04:00:21;;;;;;;;;;;;;;;;;;5051175;28;20361;-62
2023/10/27 04:02:47;;;;;;;;;;;;;;;;;;5027606;28;19975;-63
2023/10/27 04:05:13;;;;;;;;;;;;;;;;;;5050699;28;19944;-62
2023/10/27 04:07:39;;;;;;;;;;;;;;;;;;5049670;28;19944;-64
2023/10/27 04:10:04;;;;;;;;;;;;;;;;;;5045518;28;19956;-63
2023/10/27 04:12:30;;;;;;;;;;;;;;;;;;5034715;28;20287;-62
2023/10/27 04:14:56;;;;;;;;;;;;;;;;;;5050330;28;19945;-62
2023/10/27 04:17:22;;;;;;;;;;;;;;;;;;5051275;28;19913;-62
2023/10/27 04:19:50;;;;;;;;;;;;;;;;;;5051302;28;19955;-62
2023/10/27 04:22:16;;;;;;;;;;;;;;;;;;5043087;28;19909;-62
2023/10/27 04:24:41;;;;;;;;;;;;;;;;;;5051545;28;19928;-62
2023/10/27 04:27:07;;;;;;;;;;;;;;;;;;5050590;28;19995;-62
2023/10/27 04:29:33;;;;;;;;;;;;;;;;;;5051501;28;20394;-62
2023/10/27 04:31:59;;;;;;;;;;;;;;;;;;5049952;28;19917;-62
2023/10/27 04:34:25;;;;;;;;;;;;;;;;;;5046858;28;20323;-62
2023/10/27 04:36:52;;;;;;;;;;;;;;;;;;5048784;28;19913;-62
2023/10/27 04:39:18;;;;;;;;;;;;;;;;;;5045263;28;19944;-63
2023/10/27 04:41:44;;;;;;;;;;;;;;;;;;5051841;28;20378;-62
2023/10/27 04:44:10;;;;;;;;;;;;;;;;;;5050081;28;19909;-62
2023/10/27 04:46:36;;;;;;;;;;;;;;;;;;5049906;28;19966;-62
2023/10/27 04:49:01;;;;;;;;;;;;;;;;;;5051502;28;19992;-62
2023/10/27 04:51:27;;;;;;;;;;;;;;;;;;5050882;28;19916;-62
2023/10/27 04:53:53;;;;;;;;;;;;;;;;;;5051669;28;20407;-62
2023/10/27 04:56:19;;;;;;;;;;;;;;;;;;5051538;28;19915;-63
2023/10/27 04:58:46;;;;;;;;;;;;;;;;;;5047743;28;19912;-63
2023/10/27 05:01:13;;;;;;;;;;;;;;;;;;5051182;28;19917;-62
2023/10/27 05:03:39;;;;;;;;;;;;;;;;;;5051126;28;19908;-62
2023/10/27 05:06:05;;;;;;;;;;;;;;;;;;5050887;28;20330;-62
2023/10/27 05:08:30;;;;;;;;;;;;;;;;;;5051728;28;19915;-62
2023/10/27 05:10:56;;;;;;;;;;;;;;;;;;5040381;28;19909;-62
2023/10/27 05:13:22;;;;;;;;;;;;;;;;;;5040525;28;20015;-63
2023/10/27 05:15:48;;;;;;;;;;;;;;;;;;5050965;28;19917;-62
2023/10/27 05:18:14;;;;;;;;;;;;;;;;;;5049544;28;19917;-62
2023/10/27 05:20:40;;;;;;;;;;;;;;;;;;5053555;28;20009;-62
2023/10/27 05:23:06;;;;;;;;;;;;;;;;;;5055328;28;20262;-62
2023/10/27 05:25:34;;;;;;;;;;;;;;;;;;5054662;28;19921;-63
2023/10/27 05:28:00;;;;;;;;;;;;;;;;;;5054908;28;20365;-62
2023/10/27 05:30:26;;;;;;;;;;;;;;;;;;5052551;28;19913;-63
2023/10/27 05:32:52;;;;;;;;;;;;;;;;;;5055059;28;19924;-62
2023/10/27 05:35:18;;;;;;;;;;;;;;;;;;5053314;28;19913;-62
2023/10/27 05:37:44;;;;;;;;;;;;;;;;;;5049581;28;19975;-62
2023/10/27 05:40:10;;;;;;;;;;;;;;;;;;5052254;28;19912;-62
2023/10/27 05:42:36;;;;;;;;;;;;;;;;;;5054613;28;19919;-62
2023/10/27 05:45:02;;;;;;;;;;;;;;;;;;5053975;28;20304;-62
2023/10/27 05:47:28;;;;;;;;;;;;;;;;;;5052550;28;19913;-62
2023/10/27 05:49:55;;;;;;;;;;;;;;;;;;5054099;28;19988;-62
2023/10/27 05:52:20;;;;;;;;;;;;;;;;;;5052108;28;20372;-63
2023/10/27 05:54:46;;;;;;;;;;;;;;;;;;5053539;28;19916;-63
2023/10/27 05:57:12;;;;;;;;;;;;;;;;;;5054298;28;19913;-62
2023/10/27 05:59:38;;;;;;;;;;;;;;;;;;5051433;28;19917;-62
2023/10/27 06:02:04;;;;;;;;;;;;;;;;;;5053419;28;20010;-62
2023/10/27 06:04:30;;;;;;;;;;;;;;;;;;5052569;28;19917;-62
2023/10/27 06:06:56;;;;;;;;;;;;;;;;;;5054311;28;20257;-62
2023/10/27 06:09:22;;;;;;;;;;;;;;;;;;5053738;28;19916;-62
2023/10/27 06:11:48;;;;;;;;;;;;;;;;;;5053190;28;20015;-63
2023/10/27 06:14:14;;;;;;;;;;;;;;;;;;5044832;28;19960;-62
2023/10/27 06:16:40;;;;;;;;;;;;;;;;;;5050188;28;20383;-62
2023/10/27 06:19:05;;;;;;;;;;;;;;;;;;5051825;28;19913;-63
2023/10/27 06:21:31;;;;;;;;;;;;;;;;;;5042844;28;20345;-62
2023/10/27 06:23:57;;;;;;;;;;;;;;;;;;5052004;28;20011;-62
2023/10/27 06:26:24;;;;;;;;;;;;;;;;;;5048332;28;20002;-63
2023/10/27 06:28:50;;;;;;;;;;;;;;;;;;5048167;28;20376;-63
2023/10/27 06:31:16;;;;;;;;;;;;;;;;;;5049435;28;20004;-62
2023/10/27 06:33:41;;;;;;;;;;;;;;;;;;5050890;28;19917;-62
2023/10/27 06:36:07;;;;;;;;;;;;;;;;;;5052871;28;19913;-62
2023/10/27 06:38:33;;;;;;;;;;;;;;;;;;5047273;28;20043;-62
2023/10/27 06:40:59;;;;;;;;;;;;;;;;;;5052135;28;20381;-63
2023/10/27 06:43:25;;;;;;;;;;;;;;;;;;5052345;28;19920;-66
2023/10/27 06:45:51;;;;;;;;;;;;;;;;;;5042944;28;20002;-66
2023/10/27 06:48:17;;;;;;;;;;;;;;;;;;5049376;28;19975;-66
2023/10/27 06:50:43;;;;;;;;;;;;;;;;;;5032762;28;19913;-66
2023/10/27 06:53:09;;;;;;;;;;;;;;;;;;5045745;28;20397;-66
2023/10/27 06:55:35;;;;;;;;;;;;;;;;;;5046218;28;19916;-66
2023/10/27 06:58:01;;;;;;;;;;;;;;;;;;5049124;28;20276;-66
2023/10/27 07:00:27;;;;;;;;;;;;;;;;;;5039147;28;20424;-66
2023/10/27 07:02:53;;;;;;;;;;;;;;;;;;5050522;28;19948;-66
2023/10/27 07:05:19;;;;;;;;;;;;;;;;;;5044486;28;19958;-66
2023/10/27 07:07:45;;;;;;;;;;;;;;;;;;5049674;28;19975;-66
2023/10/27 07:10:12;;;;;;;;;;;;;;;;;;5051434;28;19948;-66
2023/10/27 07:12:38;;;;;;;;;;;;;;;;;;5048467;28;19921;-66
2023/10/27 07:15:04;;;;;;;;;;;;;;;;;;5043971;28;19951;-66
2023/10/27 07:17:29;;;;;;;;;;;;;;;;;;5049947;28;19948;-66
2023/10/27 07:19:55;;;;;;;;;;;;;;;;;;5048506;28;20018;-66
2023/10/27 07:22:21;;;;;;;;;;;;;;;;;;5049180;28;19950;-66
2023/10/27 07:24:47;;;;;;;;;;;;;;;;;;5038345;28;19956;-66
2023/10/27 07:27:13;;;;;;;;;;;;;;;;;;5051836;28;19936;-66
2023/10/27 07:29:39;;;;;;;;;;;;;;;;;;5049497;28;19948;-66
2023/10/27 07:32:07;;;;;;;;;;;;;;;;;;5039716;28;22559;-66
2023/10/27 07:34:33;;;;;;;;;;;;;;;;;;5043260;28;19947;-66
2023/10/27 07:36:59;;;;;;;;;;;;;;;;;;5039793;28;19970;-66
2023/10/27 07:39:24;;;;;;;;;;;;;;;;;;5041629;28;19961;-66
2023/10/27 07:41:51;;;;;;;;;;;;;;;;;;5047677;28;19949;-66
2023/10/27 07:44:17;;;;;;;;;;;;;;;;;;5050130;28;19913;-66
2023/10/27 07:46:42;;;;;;;;;;;;;;;;;;5046741;28;19927;-66
2023/10/27 07:49:08;;;;;;;;;;;;;;;;;;5049841;28;19913;-66
2023/10/27 07:51:34;;;;;;;;;;;;;;;;;;5047685;28;20087;-66
2023/10/27 07:54:00;;;;;;;;;;;;;;;;;;5044716;28;19960;-62
2023/10/27 07:56:26;;;;;;;;;;;;;;;;;;5051477;28;19909;-62
2023/10/27 07:58:52;;;;;;;;;;;;;;;;;;5050306;28;19920;-62
2023/10/27 08:01:18;;;;;;;;;;;;;;;;;;5044269;28;20289;-62
2023/10/27 08:03:46;;;;;;;;;;;;;;;;;;5048760;28;20051;-62
2023/10/27 08:06:12;;;;;;;;;;;;;;;;;;5041788;28;20391;-63
2023/10/27 08:08:38;;;;;;;;;;;;;;;;;;5051097;28;19913;-62
2023/10/27 08:11:04;;;;;;;;;;;;;;;;;;5040022;28;19955;-62
2023/10/27 08:13:30;;;;;;;;;;;;;;;;;;5045631;28;20329;-63
2023/10/27 08:15:56;;;;;;;;;;;;;;;;;;5037130;28;19959;-64
2023/10/27 08:18:22;;;;;;;;;;;;;;;;;;5035851;28;19978;-62
2023/10/27 08:20:48;;;;;;;;;;;;;;;;;;5034315;28;19928;-63
2023/10/27 08:23:14;;;;;;;;;;;;;;;;;;5036623;28;19960;-62
2023/10/27 08:25:40;;;;;;;;;;;;;;;;;;5047688;28;20376;-62
2023/10/27 08:28:06;;;;;;;;;;;;;;;;;;5047629;28;19960;-63
2023/10/27 08:30:33;;;;;;;;;;;;;;;;;;5049140;28;19916;-62
2023/10/27 08:32:59;;;;;;;;;;;;;;;;;;5042356;28;21357;-62
2023/10/27 08:35:24;;;;;;;;;;;;;;;;;;5046352;28;19941;-65
2023/10/27 08:37:50;;;;;;;;;;;;;;;;;;5047333;28;20003;-62
2023/10/27 08:40:17;;;;;;;;;;;;;;;;;;5046863;28;20001;-62
2023/10/27 08:42:44;;;;;;;;;;;;;;;;;;5049067;28;20009;-62
2023/10/27 08:45:10;;;;;;;;;;;;;;;;;;5049547;28;19913;-64
2023/10/27 08:47:36;;;;;;;;;;;;;;;;;;5045099;28;19952;-63
2023/10/27 08:50:02;;;;;;;;;;;;;;;;;;5044935;28;19917;-62
2023/10/27 08:52:28;;;;;;;;;;;;;;;;;;5047400;28;20388;-63
2023/10/27 08:54:54;;;;;;;;;;;;;;;;;;5047701;28;19920;-62
2023/10/27 08:57:20;;;;;;;;;;;;;;;;;;5050559;28;20319;-62
2023/10/27 08:59:46;;;;;;;;;;;;;;;;;;5046899;28;19986;-63
2023/10/27 09:02:12;;;;;;;;;;;;;;;;;;5049061;28;19920;-63
2023/10/27 09:04:37;;;;;;;;;;;;;;;;;;5052183;28;20286;-63
2023/10/27 09:07:03;;;;;;;;;;;;;;;;;;5049225;28;19923;-62
2023/10/27 09:09:31;;;;;;;;;;;;;;;;;;5052424;28;20001;-62
2023/10/27 09:11:56;;;;;;;;;;;;;;;;;;5051751;28;20365;-64
2023/10/27 09:14:23;;;;;;;;;;;;;;;;;;5051093;28;19916;-65
2023/10/27 09:16:49;;;;;;;;;;;;;;;;;;5046485;28;20258;-64
2023/10/27 09:19:14;;;;;;;;;;;;;;;;;;5052414;28;19967;-65
2023/10/27 09:21:44;;;;;;;;;;;;;;;;;;5035135;28;20011;-64
2023/10/27 09:24:10;;;;;;;;;;;;;;;;;;5052884;28;20405;-62
2023/10/27 09:26:36;;;;;;;;;;;;;;;;;;5048935;28;19927;-62
2023/10/27 09:29:03;;;;;;;;;;;;;;;;;;5052806;28;19983;-62
2023/10/27 09:31:29;;;;;;;;;;;;;;;;;;5050367;28;19992;-62
2023/10/27 09:33:55;;;;;;;;;;;;;;;;;;5053007;28;19999;-64
2023/10/27 09:36:21;;;;;;;;;;;;;;;;;;5051679;28;20302;-62
2023/10/27 09:38:46;;;;;;;;;;;;;;;;;;5052195;28;19917;-62
2023/10/27 09:41:12;;;;;;;;;;;;;;;;;;5052525;28;20016;-62
2023/10/27 09:43:38;;;;;;;;;;;;;;;;;;5050451;28;20293;-63
2023/10/27 09:46:04;;;;;;;;;;;;;;;;;;5047130;28;20322;-62
2023/10/27 09:48:32;;;;;;;;;;;;;;;;;;5049618;28;19919;-62
2023/10/27 09:50:58;;;;;;;;;;;;;;;;;;5050580;28;20058;-62
2023/10/27 09:53:24;;;;;;;;;;;;;;;;;;5051967;28;19927;-61
2023/10/27 09:55:50;;;;;;;;;;;;;;;;;;5032740;28;19948;-62
2023/10/27 09:58:16;;;;;;;;;;;;;;;;;;5050920;28;19955;-63
2023/10/27 10:00:42;;;;;;;;;;;;;;;;;;5049036;28;19917;-62
2023/10/27 10:03:08;;;;;;;;;;;;;;;;;;5049690;28;19920;-62
2023/10/27 10:05:34;;;;;;;;;;;;;;;;;;5051090;28;19954;-62
2023/10/27 10:08:06;;;;;;;;;;;;;;;;;;5050678;28;20395;-62
2023/10/27 10:10:33;;;;;;;;;;;;;;;;;;5051400;28;19912;-62
2023/10/27 10:13:02;;;;;;;;;;;;;;;;;;5049742;28;20388;-62
2023/10/27 10:15:28;;;;;;;;;;;;;;;;;;5050814;28;19967;-62
2023/10/27 10:17:55;;;;;;;;;;;;;;;;;;5031274;28;19937;-62
2023/10/27 10:20:21;;;;;;;;;;;;;;;;;;5049593;28;19999;-62
2023/10/27 10:22:48;;;;;;;;;;;;;;;;;;5042631;28;20341;-62
2023/10/27 10:25:14;;;;;;;;;;;;;;;;;;5051134;28;20003;-62
2023/10/27 10:27:40;;;;;;;;;;;;;;;;;;5051507;28;20003;-62
2023/10/27 10:30:06;;;;;;;;;;;;;;;;;;5051158;28;20003;-62
2023/10/27 10:32:33;;;;;;;;;;;;;;;;;;5050795;28;20150;-68
2023/10/27 10:34:58;;;;;;;;;;;;;;;;;;5050655;28;19916;-67
2023/10/27 10:37:24;;;;;;;;;;;;;;;;;;5050335;28;20026;-68
2023/10/27 10:39:50;;;;;;;;;;;;;;;;;;5046319;28;19913;-68
2023/10/27 10:42:16;;;;;;;;;;;;;;;;;;5047911;28;19928;-68
2023/10/27 10:44:42;;;;;;;;;;;;;;;;;;5050196;28;19952;-67
2023/10/27 10:47:08;;;;;;;;;;;;;;;;;;5051277;28;19925;-68
2023/10/27 10:49:36;;;;;;;;;;;;;;;;;;5046089;28;20874;-68
2023/10/27 10:52:02;;;;;;;;;;;;;;;;;;5049369;28;19931;-68
2023/10/27 10:54:28;;;;;;;;;;;;;;;;;;5047721;28;20331;-68
2023/10/27 10:56:54;;;;;;;;;;;;;;;;;;5049957;28;19959;-68
2023/10/27 10:59:20;;;;;;;;;;;;;;;;;;5048557;28;19995;-68
2023/10/27 11:01:46;;;;;;;;;;;;;;;;;;5047487;28;19913;-68
2023/10/27 11:04:12;;;;;;;;;;;;;;;;;;5046099;28;19964;-68
2023/10/27 11:06:38;;;;;;;;;;;;;;;;;;5046582;28;19923;-68
2023/10/27 11:09:04;;;;;;;;;;;;;;;;;;5048048;28;19925;-68
2023/10/27 11:11:30;;;;;;;;;;;;;;;;;;5047161;28;20319;-68
2023/10/27 11:13:57;;;;;;;;;;;;;;;;;;5049861;28;19978;-68
2023/10/27 11:16:22;;;;;;;;;;;;;;;;;;5048657;28;20412;-68
2023/10/27 11:18:49;;;;;;;;;;;;;;;;;;5049679;28;19919;-67
2023/10/27 11:21:15;;;;;;;;;;;;;;;;;;5044826;28;19912;-67
2023/10/27 11:23:41;;;;;;;;;;;;;;;;;;5042794;28;19975;-68
2023/10/27 11:26:07;;;;;;;;;;;;;;;;;;5049635;28;19960;-68
2023/10/27 11:28:33;;;;;;;;;;;;;;;;;;5044031;28;19998;-68
2023/10/27 11:30:59;;;;;;;;;;;;;;;;;;5049103;28;19916;-68
2023/10/27 11:33:25;;;;;;;;;;;;;;;;;;5048431;28;19986;-66
2023/10/27 11:35:51;;;;;;;;;;;;;;;;;;5048323;28;19952;-66
2023/10/27 11:38:17;;;;;;;;;;;;;;;;;;5042709;28;19912;-66
2023/10/27 11:40:43;;;;;;;;;;;;;;;;;;5047993;28;19917;-66
2023/10/27 11:43:09;;;;;;;;;;;;;;;;;;5050396;28;19943;-64
2023/10/27 11:45:34;;;;;;;;;;;;;;;;;;5048657;28;19951;-64
2023/10/27 11:48:00;;;;;;;;;;;;;;;;;;5049935;28;20270;-64
2023/10/27 11:50:26;;;;;;;;;;;;;;;;;;5049516;28;19917;-65
2023/10/27 11:52:52;;;;;;;;;;;;;;;;;;5042833;28;19974;-64
2023/10/27 11:55:19;;;;;;;;;;;;;;;;;;5049103;28;19958;-64
2023/10/27 11:57:45;;;;;;;;;;;;;;;;;;5049412;28;19924;-64
2023/10/27 12:00:11;;;;;;;;;;;;;;;;;;5047334;28;19952;-64
2023/10/27 12:02:37;;;;;;;;;;;;;;;;;;5047914;28;19959;-64
2023/10/27 12:05:02;;;;;;;;;;;;;;;;;;5045586;28;20351;-64
2023/10/27 12:07:28;;;;;;;;;;;;;;;;;;5050746;28;19967;-64
2023/10/27 12:09:54;;;;;;;;;;;;;;;;;;5047372;28;19913;-64
2023/10/27 12:12:22;;;;;;;;;;;;;;;;;;5046714;28;19917;-64
2023/10/27 12:14:47;;;;;;;;;;;;;;;;;;5047161;28;19923;-64
2023/10/27 12:17:13;;;;;;;;;;;;;;;;;;5047436;28;19959;-64
2023/10/27 12:19:39;;;;;;;;;;;;;;;;;;5045084;28;19958;-64
2023/10/27 12:22:05;;;;;;;;;;;;;;;;;;5048147;28;19942;-64
2023/10/27 12:24:33;;;;;;;;;;;;;;;;;;5050288;28;19916;-64
2023/10/27 12:26:59;;;;;;;;;;;;;;;;;;5049331;28;19928;-64
2023/10/27 12:29:26;;;;;;;;;;;;;;;;;;5032058;28;20630;-64
2023/10/27 12:31:52;;;;;;;;;;;;;;;;;;5047388;28;20433;-64
2023/10/27 12:34:18;;;;;;;;;;;;;;;;;;5044675;28;20004;-64
2023/10/27 12:36:45;;;;;;;;;;;;;;;;;;5054629;28;19952;-64
2023/10/27 12:39:11;;;;;;;;;;;;;;;;;;5053465;28;20001;-64
2023/10/27 12:41:37;;;;;;;;;;;;;;;;;;5052833;28;19917;-64
2023/10/27 12:44:03;;;;;;;;;;;;;;;;;;5062668;28;19951;-62
2023/10/27 12:46:29;;;;;;;;;;;;;;;;;;5051124;28;19912;-62
2023/10/27 12:48:55;;;;;;;;;;;;;;;;;;5050877;28;19919;-62
2023/10/27 12:51:21;;;;;;;;;;;;;;;;;;5049845;28;19956;-62
2023/10/27 12:53:47;;;;;;;;;;;;;;;;;;5053025;28;20448;-66
2023/10/27 12:56:12;;;;;;;;;;;;;;;;;;5053552;28;19960;-66
2023/10/27 12:58:39;;;;;;;;;;;;;;;;;;5047012;28;19919;-66
2023/10/27 13:01:06;;;;;;;;;;;;;;;;;;5051577;28;19913;-66
2023/10/27 13:03:32;;;;;;;;;;;;;;;;;;5050665;28;20391;-66
2023/10/27 13:05:58;;;;;;;;;;;;;;;;;;5053601;28;19963;-66
2023/10/27 13:08:24;;;;;;;;;;;;;;;;;;5050010;28;19959;-66
2023/10/27 13:10:50;;;;;;;;;;;;;;;;;;5054680;28;20003;-66
2023/10/27 13:13:16;;;;;;;;;;;;;;;;;;5053578;28;19925;-66
2023/10/27 13:15:42;;;;;;;;;;;;;;;;;;5052200;28;19924;-66
2023/10/27 13:18:08;;;;;;;;;;;;;;;;;;5051240;28;19960;-66
2023/10/27 13:20:34;;;;;;;;;;;;;;;;;;5042056;28;19919;-66
2023/10/27 13:23:00;;;;;;;;;;;;;;;;;;5051470;28;19934;-66
2023/10/27 13:25:26;;;;;;;;;;;;;;;;;;5053749;28;20392;-66
2023/10/27 13:27:52;;;;;;;;;;;;;;;;;;5053564;28;19970;-66
2023/10/27 13:30:18;;;;;;;;;;;;;;;;;;5056148;28;19917;-66
2023/10/27 13:32:44;;;;;;;;;;;;;;;;;;5053907;28;19998;-66
2023/10/27 13:35:10;;;;;;;;;;;;;;;;;;5048236;28;19995;-66
2023/10/27 13:37:36;;;;;;;;;;;;;;;;;;5050386;28;19913;-66
2023/10/27 13:40:05;;;;;;;;;;;;;;;;;;5049872;28;20688;-66
2023/10/27 13:42:31;;;;;;;;;;;;;;;;;;5045658;28;19966;-66
2023/10/27 13:44:57;;;;;;;;;;;;;;;;;;5050006;28;19948;-66
2023/10/27 13:47:25;;;;;;;;;;;;;;;;;;5051836;28;19998;-66
2023/10/27 13:49:53;;;;;;;;;;;;;;;;;;5052677;28;19920;-66
2023/10/27 13:52:18;;;;;;;;;;;;;;;;;;5040616;28;19947;-63
2023/10/27 13:54:44;;;;;;;;;;;;;;;;;;5046669;28;20082;-62
2023/10/27 13:57:11;;;;;;;;;;;;;;;;;;5043693;28;19912;-63
2023/10/27 13:59:40;;;;;;;;;;;;;;;;;;5049685;28;19935;-64
2023/10/27 14:02:05;;;;;;;;;;;;;;;;;;5047486;28;19943;-65
2023/10/27 14:04:32;;;;;;;;;;;;;;;;;;5047934;28;19913;-66
2023/10/27 14:06:58;;;;;;;;;;;;;;;;;;5053500;28;19917;-66
2023/10/27 14:09:25;;;;;;;;;;;;;;;;;;5047873;28;20361;-65
2023/10/27 14:11:51;;;;;;;;;;;;;;;;;;5049356;28;19916;-65
2023/10/27 14:14:20;;;;;;;;;;;;;;;;;;5047731;28;20406;-66
2023/10/27 14:16:46;;;;;;;;;;;;;;;;;;5024464;28;19917;-66
2023/10/27 14:19:14;;;;;;;;;;;;;;;;;;5051452;28;19939;-66
2023/10/27 14:21:41;;;;;;;;;;;;;;;;;;5050978;28;19989;-65
2023/10/27 14:24:06;;;;;;;;;;;;;;;;;;5049442;28;19943;-66
2023/10/27 14:26:32;;;;;;;;;;;;;;;;;;5049147;28;19917;-66
2023/10/27 14:29:02;;;;;;;;;;;;;;;;;;5052145;28;19917;-65
2023/10/27 14:31:28;;;;;;;;;;;;;;;;;;5050197;28;20332;-65
2023/10/27 14:33:54;;;;;;;;;;;;;;;;;;5044966;28;19924;-65
2023/10/27 14:36:20;;;;;;;;;;;;;;;;;;5045594;28;20444;-66
2023/10/27 14:38:46;;;;;;;;;;;;;;;;;;5051946;28;19917;-66
2023/10/27 14:41:12;;;;;;;;;;;;;;;;;;5049424;28;19920;-66
2023/10/27 14:43:38;;;;;;;;;;;;;;;;;;5047155;28;19921;-65
2023/10/27 14:46:04;;;;;;;;;;;;;;;;;;5048545;28;20321;-66
2023/10/27 14:48:30;;;;;;;;;;;;;;;;;;5041384;28;19962;-66
2023/10/27 14:50:56;;;;;;;;;;;;;;;;;;5049016;28;19919;-66
2023/10/27 14:53:23;;;;;;;;;;;;;;;;;;5047456;28;19928;-66
2023/10/27 14:55:48;;;;;;;;;;;;;;;;;;5046127;28;19920;-66
2023/10/27 14:58:14;;;;;;;;;;;;;;;;;;5042963;28;19944;-66
2023/10/27 15:00:41;;;;;;;;;;;;;;;;;;5041466;28;20284;-66
2023/10/27 15:03:07;;;;;;;;;;;;;;;;;;5043490;28;19913;-62
2023/10/27 15:05:33;;;;;;;;;;;;;;;;;;5049495;28;19932;-62
2023/10/27 15:07:59;;;;;;;;;;;;;;;;;;5044673;28;20364;-62
2023/10/27 15:10:25;;;;;;;;;;;;;;;;;;5056857;28;19940;-62
2023/10/27 15:12:51;;;;;;;;;;;;;;;;;;5046618;28;19957;-67
2023/10/27 15:15:17;;;;;;;;;;;;;;;;;;5045513;28;19928;-68
2023/10/27 15:17:43;;;;;;;;;;;;;;;;;;5047941;28;19917;-67
2023/10/27 15:20:10;;;;;;;;;;;;;;;;;;5051095;28;19913;-68
2023/10/27 15:22:36;;;;;;;;;;;;;;;;;;5050387;28;19923;-67
2023/10/27 15:25:02;;;;;;;;;;;;;;;;;;5042045;28;19960;-67
2023/10/27 15:27:30;;;;;;;;;;;;;;;;;;5042826;28;20003;-68
2023/10/27 15:29:56;;;;;;;;;;;;;;;;;;5045719;28;20412;-68
2023/10/27 15:32:22;;;;;;;;;;;;;;;;;;5045602;28;19967;-66
2023/10/27 15:34:49;;;;;;;;;;;;;;;;;;5045801;28;19931;-67
2023/10/27 15:37:15;;;;;;;;;;;;;;;;;;5051497;28;19913;-67
2023/10/27 15:39:41;;;;;;;;;;;;;;;;;;5044919;28;19955;-67
2023/10/27 15:42:08;;;;;;;;;;;;;;;;;;5046043;28;19955;-67
2023/10/27 15:44:34;;;;;;;;;;;;;;;;;;5049946;28;19920;-66
2023/10/27 15:47:01;;;;;;;;;;;;;;;;;;5050704;28;19956;-68
2023/10/27 15:49:27;;;;;;;;;;;;;;;;;;5047702;28;20521;-67
2023/10/27 15:51:53;;;;;;;;;;;;;;;;;;5047861;28;19916;-67
2023/10/27 15:54:18;;;;;;;;;;;;;;;;;;5049888;28;19944;-66
2023/10/27 15:56:44;;;;;;;;;;;;;;;;;;5042162;28;20003;-67
2023/10/27 15:59:10;;;;;;;;;;;;;;;;;;5048829;28;19916;-66
2023/10/27 16:01:36;;;;;;;;;;;;;;;;;;5048691;28;19921;-67
2023/10/27 16:04:03;;;;;;;;;;;;;;;;;;5051360;28;19913;-68
2023/10/27 16:06:29;;;;;;;;;;;;;;;;;;5051324;28;19936;-67
2023/10/27 16:08:55;;;;;;;;;;;;;;;;;;5051338;28;19917;-67
2023/10/27 16:11:23;;;;;;;;;;;;;;;;;;5049382;28;19990;-67
2023/10/27 16:13:48;;;;;;;;;;;;;;;;;;5041976;28;19921;-66
2023/10/27 16:16:17;;;;;;;;;;;;;;;;;;5046761;28;19979;-66
2023/10/27 16:18:43;;;;;;;;;;;;;;;;;;5044661;28;19936;-66
2023/10/27 16:21:09;;;;;;;;;;;;;;;;;;5048482;28;19972;-66
2023/10/27 16:23:35;;;;;;;;;;;;;;;;;;5050076;28;19975;-66
2023/10/27 16:26:05;;;;;;;;;;;;;;;;;;5048734;28;19995;-66
2023/10/27 16:28:31;;;;;;;;;;;;;;;;;;5048711;28;19913;-66
2023/10/27 16:30:57;;;;;;;;;;;;;;;;;;5045599;28;19959;-66
2023/10/27 16:33:23;;;;;;;;;;;;;;;;;;5046104;28;20009;-66
2023/10/27 16:35:48;;;;;;;;;;;;;;;;;;5040743;28;19913;-66
2023/10/27 16:38:14;;;;;;;;;;;;;;;;;;5048772;28;19913;-66